Etusivu
METAR-TAF:

METAR-TAF

Lentoasemat :

Shreveport Regional Airport

Shreveport, Louisiana, Yhdysvallat

Leveyspiiri: 32-26-49N, Pituuspiiri: 093-49-27W, korkeus merenpinnasta: 78 m

Tämänhetkinen sää

Tämä raportti tehtiin 30 minuuttia sitten, kello 12.56 UTC
tyyntä
Lämpötila 27°C
Kosteus 70%
Ilmanpaine 1015 hPa
Näkyvyys: 16.1 km
selkeää

METAR: KSHV 151256Z 00000KT 10SM CLR 27/21 A2997 RMK SLPNO

Aika: 08:26 (13:26 UTC)

Sääennuste

Tämä raportti tehtiin 2 tuntia ja 6 minuuttia sitten, kello 11.20 UTC
Ennuste voimassa 15. päivästä klo 12 UTC - 16. päivään klo 12 UTC
Tuuli 3 kn eri suunnista
Näkyvyys: 10 km
selkeää
From 15. päivästä klo 1800 UTC
Tuuli 5 kn idästä/kaakosta
Näkyvyys: 10 km
Hajanaisia pilviä 5000 ft:n korkeudessa
From 16. päivästä klo 0300 UTC
Tuuli 4 kn etelästä/kaakosta
Näkyvyys: 10 km
selkeää

TAF: KSHV 151120Z 1512/1612 VRB03KT P6SM SKC FM151800 12005KT P6SM SCT050 FM160300 16004KT P6SM SKC

Säähavainnot ja -ennusteet yli 4000 lentoasemalta (METAR- ja TAF-raportit).

Käytössä olevat sääasemat on merkitty karttaan keltaisilla ja punaisilla pisteillä.

Aseta hiiri pisteen päälle nähdäksesi sääaseman nimen.

Klikkaa sitten nähdäksesi säähavainnot ja -ennusteet.

Kartan vaihtaminen: klikkaa mustalla rastilla varustettuja vihreitä pisteitä, niin voit zoomata sisään; viivalla varustettua vihreää pistettä, niin voit zoomata ulos tai vihreitä nuolia, niin pääset viereisille kartoille.


METAR-TAF: